EDDTEDDC

Guest
Details From EDDT - Berlin Tegel
To EDDC - Dresden
Flight Number -
Tags Generated
Created
Modified
Stats Distance 88 nm / 163 km
Max Altitude 0 ft / 0 m
Waypoints 2
Social Downloads 6
Likes 0
Share VATSIM

Download

Looking for another format? Having issues loading an existing format? Contact us
Advertisement - Login to hide

Notes

Generated

Route

EDDT EDDC

ID Type Via Altitude Latitude Longitude Leg Dist Tot Dist Heading (true) Name
O EDDT APT - 0 ft / 0 m 52.55668˚ 13.27499˚ - 0 nm - -
O EDDC APT - 0 ft / 0 m 51.12425˚ 13.75544˚ 87 nm 87 nm 168° / 168° -

Altitude Profile

Advertisement - Login to hide

EDDT

Details ICAO EDDT (TXL)
Name Berlin Tegel
Region Germany - Civil
Timezone Europe/Berlin (UTC+1.0)
Stats Elevation 122 ft / 37 m (AMSL)
Location 52.559100° 13.290188°
Runways 2
Magnetic Variation 3.753° E

METAR

EDDT 182020Z 22003KT CAVOK M02/M03 Q1028 NOSIG

Decode

TAF

TAF EDDT 181700Z 1818/1918 13005KT CAVOK BECMG 1818/1822 19003KT BECMG 1906/1909 25005KT BKN007 BECMG 1909/1912 3500 -SNRA BKN003 TEMPO 1909/1918 2000 -RADZ PROB30 TEMPO 1909/1918 1200 DZ OVC001

Decode

Departure Runways

ID Width Length Bearing (true) Bearing (mag) Surface Threshold Offset Overrun Length
08L 151 ft / 46 m 9,885 ft / 3,013 m 80.83° 77.08° Asphalt 0 ft / 0 m 226 ft / 69 m
08R 151 ft / 46 m 7,923 ft / 2,415 m 80.84° 77.09° Asphalt 341 ft / 104 m 207 ft / 63 m
26L 151 ft / 46 m 7,923 ft / 2,415 m 260.87° 257.12° Asphalt 722 ft / 220 m 157 ft / 48 m
26R 151 ft / 46 m 9,885 ft / 3,013 m 260.86° 257.11° Asphalt 0 ft / 0 m 223 ft / 68 m

EDDC

Details ICAO EDDC (DRS)
Name Dresden
Region Germany - Civil
Timezone Europe/Berlin (UTC+1.0)
Stats Elevation 752 ft / 229 m (AMSL)
Location 51.134366° 13.768065°
Runways 1
Magnetic Variation 3.801° E

METAR

EDDC 182020Z 18007KT CAVOK M04/M04 Q1028 NOSIG

Decode

TAF

TAF EDDC 181700Z 1818/1918 18005KT 9000 BKN030 BECMG 1909/1911 25006KT BECMG 1911/1914 2500 -SN BKN008 TEMPO 1911/1918 1400 -SNRA BKN003

Decode

Destination Runways

ID Width Length Bearing (true) Bearing (mag) Surface Threshold Offset Overrun Length
04 197 ft / 60 m 9,348 ft / 2,849 m 40.74° 36.94° Concrete 0 ft / 0 m 0 ft / 0 m
22 197 ft / 60 m 9,348 ft / 2,849 m 220.76° 216.96° Concrete 984 ft / 300 m 0 ft / 0 m

Approach Navaids

Runway Type Ident Frequency Range Bearing (true) Bearing (mag) Slope Elevation
04 Localiser IDRE 110.50 MHz 18 nm / 33 km 40.83° 37.03° - 703 ft / 214 m (AMSL)
04 Glidescope IDRE 110.50 MHz 10 nm / 19 km 40.83° 37.03° 3.00° 755 ft / 230 m (AMSL)
22 Localiser IDRW 109.70 MHz 18 nm / 33 km 220.81° 217.01° - 755 ft / 230 m (AMSL)
22 Glidescope IDRW 109.70 MHz 10 nm / 19 km 220.81° 217.01° 3.00° 703 ft / 214 m (AMSL)

Popular Alternatives